sensor_id;sensor_type;location;lat;lon;timestamp;temperature;humidity
69204;DHT22;56317;27.658;85.326;2022-09-27T00:00:13;19.70;99.90
69204;DHT22;56317;27.658;85.326;2022-09-27T00:02:41;19.70;99.90
69204;DHT22;56317;27.658;85.326;2022-09-27T00:05:08;19.70;99.90
69204;DHT22;56317;27.658;85.326;2022-09-27T00:07:35;19.70;99.90
69204;DHT22;56317;27.658;85.326;2022-09-27T00:10:03;19.70;99.90
69204;DHT22;56317;27.658;85.326;2022-09-27T00:12:30;19.70;99.90
69204;DHT22;56317;27.658;85.326;2022-09-27T00:14:57;19.80;99.90
69204;DHT22;56317;27.658;85.326;2022-09-27T00:17:27;19.80;99.90
69204;DHT22;56317;27.658;85.326;2022-09-27T00:19:54;19.80;99.90
69204;DHT22;56317;27.658;85.326;2022-09-27T00:22:22;19.80;99.90
69204;DHT22;56317;27.658;85.326;2022-09-27T00:24:50;19.90;99.90
69204;DHT22;56317;27.658;85.326;2022-09-27T00:27:18;19.90;99.90
69204;DHT22;56317;27.658;85.326;2022-09-27T00:29:46;19.90;99.90
69204;DHT22;56317;27.658;85.326;2022-09-27T00:32:13;19.90;99.90
69204;DHT22;56317;27.658;85.326;2022-09-27T00:34:41;20.00;99.90
69204;DHT22;56317;27.658;85.326;2022-09-27T00:37:09;20.10;99.90
69204;DHT22;56317;27.658;85.326;2022-09-27T00:39:37;20.10;99.90
69204;DHT22;56317;27.658;85.326;2022-09-27T00:42:11;20.20;99.90
69204;DHT22;56317;27.658;85.326;2022-09-27T00:55:16;20.40;99.90
69204;DHT22;56317;27.658;85.326;2022-09-27T00:57:45;20.50;99.90
69204;DHT22;56317;27.658;85.326;2022-09-27T01:00:13;20.60;99.90
69204;DHT22;56317;27.658;85.326;2022-09-27T01:02:44;20.70;99.90
69204;DHT22;56317;27.658;85.326;2022-09-27T01:05:14;20.70;99.90
69204;DHT22;56317;27.658;85.326;2022-09-27T01:07:41;20.90;99.90
69204;DHT22;56317;27.658;85.326;2022-09-27T01:10:10;21.00;99.90
69204;DHT22;56317;27.658;85.326;2022-09-27T01:17:56;21.30;99.90
69204;DHT22;56317;27.658;85.326;2022-09-27T01:29:28;21.80;99.90
69204;DHT22;56317;27.658;85.326;2022-09-27T01:32:06;22.00;99.90
69204;DHT22;56317;27.658;85.326;2022-09-27T01:34:46;22.10;99.90
69204;DHT22;56317;27.658;85.326;2022-09-27T01:48:11;22.90;99.90
69204;DHT22;56317;27.658;85.326;2022-09-27T01:53:43;23.40;99.90
69204;DHT22;56317;27.658;85.326;2022-09-27T01:56:26;23.50;99.90
69204;DHT22;56317;27.658;85.326;2022-09-27T02:01:32;23.70;99.90
69204;DHT22;56317;27.658;85.326;2022-09-27T02:04:01;24.00;99.90
69204;DHT22;56317;27.658;85.326;2022-09-27T02:06:35;24.20;99.90
69204;DHT22;56317;27.658;85.326;2022-09-27T02:11:35;24.20;99.90
69204;DHT22;56317;27.658;85.326;2022-09-27T02:14:17;24.40;99.90
69204;DHT22;56317;27.658;85.326;2022-09-27T02:19:31;24.70;99.90
69204;DHT22;56317;27.658;85.326;2022-09-27T02:25:10;25.30;99.90
69204;DHT22;56317;27.658;85.326;2022-09-27T02:27:35;25.60;99.90
69204;DHT22;56317;27.658;85.326;2022-09-27T02:30:07;25.80;99.90
69204;DHT22;56317;27.658;85.326;2022-09-27T02:32:37;26.00;99.40
69204;DHT22;56317;27.658;85.326;2022-09-27T02:37:38;25.90;98.90
69204;DHT22;56317;27.658;85.326;2022-09-27T02:40:05;25.80;98.70
69204;DHT22;56317;27.658;85.326;2022-09-27T02:42:34;25.80;98.90
69204;DHT22;56317;27.658;85.326;2022-09-27T02:45:03;25.60;98.60
69204;DHT22;56317;27.658;85.326;2022-09-27T02:50:30;25.80;97.70
69204;DHT22;56317;27.658;85.326;2022-09-27T02:53:51;25.80;96.90
69204;DHT22;56317;27.658;85.326;2022-09-27T02:56:09;25.70;97.10
69204;DHT22;56317;27.658;85.326;2022-09-27T03:02:10;25.80;96.50
69204;DHT22;56317;27.658;85.326;2022-09-27T03:07:22;26.00;96.10
69204;DHT22;56317;27.658;85.326;2022-09-27T03:09:51;26.10;96.00
69204;DHT22;56317;27.658;85.326;2022-09-27T03:12:20;26.40;95.80
69204;DHT22;56317;27.658;85.326;2022-09-27T03:14:58;26.40;94.80
69204;DHT22;56317;27.658;85.326;2022-09-27T03:17:26;26.30;94.50
69204;DHT22;56317;27.658;85.326;2022-09-27T03:19:53;26.20;94.70
69204;DHT22;56317;27.658;85.326;2022-09-27T03:22:20;26.20;95.40
69204;DHT22;56317;27.658;85.326;2022-09-27T03:24:47;26.30;95.50
69204;DHT22;56317;27.658;85.326;2022-09-27T03:27:15;26.40;95.10
69204;DHT22;56317;27.658;85.326;2022-09-27T03:29:42;26.60;94.40
69204;DHT22;56317;27.658;85.326;2022-09-27T03:32:09;26.90;94.30
69204;DHT22;56317;27.658;85.326;2022-09-27T03:34:37;27.20;93.50
69204;DHT22;56317;27.658;85.326;2022-09-27T03:37:04;27.60;93.60
69204;DHT22;56317;27.658;85.326;2022-09-27T03:39:31;28.10;92.90
69204;DHT22;56317;27.658;85.326;2022-09-27T03:41:59;28.60;91.20
69204;DHT22;56317;27.658;85.326;2022-09-27T03:44:26;28.90;90.00
69204;DHT22;56317;27.658;85.326;2022-09-27T03:46:53;29.00;87.30
69204;DHT22;56317;27.658;85.326;2022-09-27T03:49:21;28.90;87.70
69204;DHT22;56317;27.658;85.326;2022-09-27T03:51:48;28.90;86.50
69204;DHT22;56317;27.658;85.326;2022-09-27T03:54:15;28.70;86.00
69204;DHT22;56317;27.658;85.326;2022-09-27T03:56:43;28.40;85.70
69204;DHT22;56317;27.658;85.326;2022-09-27T03:59:10;28.40;87.60
69204;DHT22;56317;27.658;85.326;2022-09-27T04:01:38;28.80;85.70
69204;DHT22;56317;27.658;85.326;2022-09-27T04:04:05;29.30;86.60
69204;DHT22;56317;27.658;85.326;2022-09-27T04:06:33;29.70;85.60
69204;DHT22;56317;27.658;85.326;2022-09-27T04:09:01;30.00;85.30
69204;DHT22;56317;27.658;85.326;2022-09-27T04:11:28;30.40;84.50
69204;DHT22;56317;27.658;85.326;2022-09-27T04:13:55;31.00;82.10
69204;DHT22;56317;27.658;85.326;2022-09-27T04:16:26;31.80;79.90
69204;DHT22;56317;27.658;85.326;2022-09-27T04:18:53;32.70;78.10
69204;DHT22;56317;27.658;85.326;2022-09-27T04:21:20;33.10;74.40
69204;DHT22;56317;27.658;85.326;2022-09-27T04:23:48;33.20;74.60
69204;DHT22;56317;27.658;85.326;2022-09-27T04:26:16;33.60;74.20
69204;DHT22;56317;27.658;85.326;2022-09-27T04:28:43;34.20;72.40
69204;DHT22;56317;27.658;85.326;2022-09-27T04:31:11;34.50;69.80
69204;DHT22;56317;27.658;85.326;2022-09-27T04:33:39;34.40;68.00
69204;DHT22;56317;27.658;85.326;2022-09-27T04:36:06;34.20;67.10
69204;DHT22;56317;27.658;85.326;2022-09-27T04:38:56;33.60;66.60
69204;DHT22;56317;27.658;85.326;2022-09-27T04:41:24;33.10;67.70
69204;DHT22;56317;27.658;85.326;2022-09-27T04:43:54;32.90;68.00
69204;DHT22;56317;27.658;85.326;2022-09-27T04:46:22;33.40;69.30
69204;DHT22;56317;27.658;85.326;2022-09-27T04:48:50;33.80;67.10
69204;DHT22;56317;27.658;85.326;2022-09-27T04:51:18;33.90;66.00
69204;DHT22;56317;27.658;85.326;2022-09-27T04:53:46;33.60;66.10
69204;DHT22;56317;27.658;85.326;2022-09-27T04:56:14;33.10;64.90
69204;DHT22;56317;27.658;85.326;2022-09-27T04:58:41;32.20;65.70
69204;DHT22;56317;27.658;85.326;2022-09-27T05:01:09;31.70;66.50
69204;DHT22;56317;27.658;85.326;2022-09-27T05:03:39;31.40;67.80
69204;DHT22;56317;27.658;85.326;2022-09-27T05:06:07;31.00;68.60
69204;DHT22;56317;27.658;85.326;2022-09-27T05:08:34;30.80;69.10
69204;DHT22;56317;27.658;85.326;2022-09-27T05:11:02;30.80;70.00
69204;DHT22;56317;27.658;85.326;2022-09-27T05:13:29;30.90;70.10
69204;DHT22;56317;27.658;85.326;2022-09-27T05:16:02;31.20;68.80
69204;DHT22;56317;27.658;85.326;2022-09-27T05:18:32;31.50;69.70
69204;DHT22;56317;27.658;85.326;2022-09-27T05:21:03;31.80;68.20
69204;DHT22;56317;27.658;85.326;2022-09-27T05:23:31;32.10;68.40
69204;DHT22;56317;27.658;85.326;2022-09-27T05:26:02;32.30;67.30
69204;DHT22;56317;27.658;85.326;2022-09-27T05:28:29;32.30;66.80
69204;DHT22;56317;27.658;85.326;2022-09-27T05:30:57;32.50;66.00
69204;DHT22;56317;27.658;85.326;2022-09-27T05:33:25;32.60;66.20
69204;DHT22;56317;27.658;85.326;2022-09-27T05:35:53;32.30;66.40
69204;DHT22;56317;27.658;85.326;2022-09-27T05:38:22;32.40;67.00
69204;DHT22;56317;27.658;85.326;2022-09-27T05:40:50;32.50;65.80
69204;DHT22;56317;27.658;85.326;2022-09-27T05:43:18;32.80;65.50
69204;DHT22;56317;27.658;85.326;2022-09-27T05:45:46;32.90;66.10
69204;DHT22;56317;27.658;85.326;2022-09-27T05:48:14;33.10;65.30
69204;DHT22;56317;27.658;85.326;2022-09-27T05:50:42;33.20;63.40
69204;DHT22;56317;27.658;85.326;2022-09-27T05:53:10;33.40;63.00
69204;DHT22;56317;27.658;85.326;2022-09-27T05:55:39;33.50;62.70
69204;DHT22;56317;27.658;85.326;2022-09-27T05:58:08;33.90;62.70
69204;DHT22;56317;27.658;85.326;2022-09-27T06:00:38;34.00;63.80
69204;DHT22;56317;27.658;85.326;2022-09-27T06:03:06;34.00;61.30
69204;DHT22;56317;27.658;85.326;2022-09-27T06:05:38;34.50;61.30
69204;DHT22;56317;27.658;85.326;2022-09-27T06:08:10;35.10;59.90
69204;DHT22;56317;27.658;85.326;2022-09-27T06:10:38;35.00;58.70
69204;DHT22;56317;27.658;85.326;2022-09-27T06:13:14;36.50;58.80
69204;DHT22;56317;27.658;85.326;2022-09-27T06:15:43;39.50;56.00
69204;DHT22;56317;27.658;85.326;2022-09-27T06:18:14;40.90;52.40
69204;DHT22;56317;27.658;85.326;2022-09-27T06:20:44;42.70;50.60
69204;DHT22;56317;27.658;85.326;2022-09-27T06:23:13;42.50;47.80
69204;DHT22;56317;27.658;85.326;2022-09-27T06:25:40;42.90;47.20
69204;DHT22;56317;27.658;85.326;2022-09-27T06:28:08;44.50;47.00
69204;DHT22;56317;27.658;85.326;2022-09-27T06:30:47;46.70;44.60
69204;DHT22;56317;27.658;85.326;2022-09-27T06:33:17;48.80;41.10
69204;DHT22;56317;27.658;85.326;2022-09-27T06:35:46;50.10;38.70
69204;DHT22;56317;27.658;85.326;2022-09-27T06:38:16;50.70;37.00
69204;DHT22;56317;27.658;85.326;2022-09-27T06:40:44;50.30;36.30
69204;DHT22;56317;27.658;85.326;2022-09-27T06:43:14;50.50;35.90
69204;DHT22;56317;27.658;85.326;2022-09-27T06:45:42;50.90;34.70
69204;DHT22;56317;27.658;85.326;2022-09-27T06:48:12;51.10;35.00
69204;DHT22;56317;27.658;85.326;2022-09-27T06:50:41;52.00;35.00
69204;DHT22;56317;27.658;85.326;2022-09-27T06:53:14;51.90;34.80
69204;DHT22;56317;27.658;85.326;2022-09-27T06:55:41;52.20;34.40
69204;DHT22;56317;27.658;85.326;2022-09-27T06:58:12;52.40;34.30
69204;DHT22;56317;27.658;85.326;2022-09-27T07:00:58;52.10;34.30
69204;DHT22;56317;27.658;85.326;2022-09-27T07:03:25;51.20;34.20
69204;DHT22;56317;27.658;85.326;2022-09-27T07:05:59;51.30;34.40
69204;DHT22;56317;27.658;85.326;2022-09-27T07:08:27;51.60;34.50
69204;DHT22;56317;27.658;85.326;2022-09-27T07:10:59;52.10;34.00
69204;DHT22;56317;27.658;85.326;2022-09-27T07:13:29;50.90;33.90
69204;DHT22;56317;27.658;85.326;2022-09-27T07:15:58;49.80;34.40
69204;DHT22;56317;27.658;85.326;2022-09-27T07:18:26;50.10;34.30
69204;DHT22;56317;27.658;85.326;2022-09-27T07:20:54;50.60;35.00
69204;DHT22;56317;27.658;85.326;2022-09-27T07:23:22;50.80;34.00
69204;DHT22;56317;27.658;85.326;2022-09-27T07:25:50;50.30;34.30
69204;DHT22;56317;27.658;85.326;2022-09-27T07:28:18;47.70;34.80
69204;DHT22;56317;27.658;85.326;2022-09-27T07:30:46;47.50;35.70
69204;DHT22;56317;27.658;85.326;2022-09-27T07:33:13;48.20;35.40
69204;DHT22;56317;27.658;85.326;2022-09-27T07:35:41;49.10;35.90
69204;DHT22;56317;27.658;85.326;2022-09-27T07:38:10;49.70;35.20
69204;DHT22;56317;27.658;85.326;2022-09-27T07:40:42;49.80;34.80
69204;DHT22;56317;27.658;85.326;2022-09-27T07:43:09;50.10;33.80
69204;DHT22;56317;27.658;85.326;2022-09-27T07:45:38;49.40;34.40
69204;DHT22;56317;27.658;85.326;2022-09-27T07:48:06;47.40;35.70
69204;DHT22;56317;27.658;85.326;2022-09-27T07:50:34;47.70;36.30
69204;DHT22;56317;27.658;85.326;2022-09-27T07:53:03;48.20;36.10
69204;DHT22;56317;27.658;85.326;2022-09-27T07:55:31;47.50;36.40
69204;DHT22;56317;27.658;85.326;2022-09-27T07:58:06;47.70;36.20
69204;DHT22;56317;27.658;85.326;2022-09-27T08:00:35;46.80;37.20
69204;DHT22;56317;27.658;85.326;2022-09-27T08:03:13;47.50;37.30
69204;DHT22;56317;27.658;85.326;2022-09-27T08:05:46;48.30;36.20
69204;DHT22;56317;27.658;85.326;2022-09-27T08:08:15;48.40;36.20
69204;DHT22;56317;27.658;85.326;2022-09-27T08:10:42;49.40;35.50
69204;DHT22;56317;27.658;85.326;2022-09-27T08:13:10;49.60;35.50
69204;DHT22;56317;27.658;85.326;2022-09-27T08:15:38;49.90;35.00
69204;DHT22;56317;27.658;85.326;2022-09-27T08:18:06;49.10;35.40
69204;DHT22;56317;27.658;85.326;2022-09-27T08:20:35;46.70;36.40
69204;DHT22;56317;27.658;85.326;2022-09-27T08:23:02;43.30;39.50
69204;DHT22;56317;27.658;85.326;2022-09-27T08:25:30;42.10;41.40
69204;DHT22;56317;27.658;85.326;2022-09-27T08:27:59;42.40;41.70
69204;DHT22;56317;27.658;85.326;2022-09-27T08:30:28;42.10;41.60
69204;DHT22;56317;27.658;85.326;2022-09-27T08:32:58;41.90;42.10
69204;DHT22;56317;27.658;85.326;2022-09-27T08:35:26;42.00;42.30
69204;DHT22;56317;27.658;85.326;2022-09-27T08:37:58;42.50;42.20
69204;DHT22;56317;27.658;85.326;2022-09-27T08:46:14;43.40;42.10
69204;DHT22;56317;27.658;85.326;2022-09-27T08:48:50;44.60;40.40
69204;DHT22;56317;27.658;85.326;2022-09-27T08:51:24;45.00;39.60
69204;DHT22;56317;27.658;85.326;2022-09-27T08:54:22;43.60;40.20
69204;DHT22;56317;27.658;85.326;2022-09-27T08:56:48;41.10;41.70
69204;DHT22;56317;27.658;85.326;2022-09-27T08:59:26;37.30;45.60
69204;DHT22;56317;27.658;85.326;2022-09-27T09:01:54;34.60;50.50
69204;DHT22;56317;27.658;85.326;2022-09-27T09:04:35;32.60;54.10
69204;DHT22;56317;27.658;85.326;2022-09-27T09:07:14;30.90;57.50
69204;DHT22;56317;27.658;85.326;2022-09-27T09:12:41;29.10;62.60
69204;DHT22;56317;27.658;85.326;2022-09-27T09:26:25;27.40;69.90
69204;DHT22;56317;27.658;85.326;2022-09-27T09:31:54;27.30;71.50
69204;DHT22;56317;27.658;85.326;2022-09-27T09:34:38;27.30;71.70
69204;DHT22;56317;27.658;85.326;2022-09-27T09:37:16;27.60;71.50
69204;DHT22;56317;27.658;85.326;2022-09-27T09:39:54;28.90;70.80
69204;DHT22;56317;27.658;85.326;2022-09-27T09:43:00;32.00;65.80
69204;DHT22;56317;27.658;85.326;2022-09-27T09:45:28;35.20;58.00
69204;DHT22;56317;27.658;85.326;2022-09-27T09:51:04;38.50;50.80
69204;DHT22;56317;27.658;85.326;2022-09-27T09:53:47;39.20;50.10
69204;DHT22;56317;27.658;85.326;2022-09-27T09:58:56;37.40;49.80
69204;DHT22;56317;27.658;85.326;2022-09-27T10:01:47;35.00;52.70
69204;DHT22;56317;27.658;85.326;2022-09-27T10:04:21;32.70;56.60
69204;DHT22;56317;27.658;85.326;2022-09-27T10:06:48;30.90;59.90
69204;DHT22;56317;27.658;85.326;2022-09-27T10:09:19;29.70;63.40
69204;DHT22;56317;27.658;85.326;2022-09-27T10:11:48;28.80;66.60
69204;DHT22;56317;27.658;85.326;2022-09-27T10:14:18;28.20;69.10
69204;DHT22;56317;27.658;85.326;2022-09-27T10:16:48;27.90;70.60
69204;DHT22;56317;27.658;85.326;2022-09-27T10:19:20;28.30;69.50
69204;DHT22;56317;27.658;85.326;2022-09-27T10:21:52;28.10;69.50
69204;DHT22;56317;27.658;85.326;2022-09-27T10:24:20;27.60;71.70
69204;DHT22;56317;27.658;85.326;2022-09-27T10:26:48;27.30;72.70
69204;DHT22;56317;27.658;85.326;2022-09-27T10:29:32;26.90;73.90
69204;DHT22;56317;27.658;85.326;2022-09-27T10:32:03;26.80;75.10
69204;DHT22;56317;27.658;85.326;2022-09-27T10:34:34;26.80;75.90
69204;DHT22;56317;27.658;85.326;2022-09-27T10:37:22;28.00;75.40
69204;DHT22;56317;27.658;85.326;2022-09-27T10:39:51;31.20;68.00
69204;DHT22;56317;27.658;85.326;2022-09-27T10:47:46;29.60;66.10
69204;DHT22;56317;27.658;85.326;2022-09-27T10:50:20;28.70;69.30
69204;DHT22;56317;27.658;85.326;2022-09-27T10:52:49;27.90;71.20
69204;DHT22;56317;27.658;85.326;2022-09-27T10:55:32;27.60;72.60
69204;DHT22;56317;27.658;85.326;2022-09-27T10:58:02;27.70;73.00
69204;DHT22;56317;27.658;85.326;2022-09-27T11:00:35;27.80;72.50
69204;DHT22;56317;27.658;85.326;2022-09-27T11:03:11;27.50;72.40
69204;DHT22;56317;27.658;85.326;2022-09-27T11:05:40;27.20;73.40
69204;DHT22;56317;27.658;85.326;2022-09-27T11:11:06;27.00;74.40
69204;DHT22;56317;27.658;85.326;2022-09-27T11:13:34;26.80;75.20
69204;DHT22;56317;27.658;85.326;2022-09-27T11:19:24;26.20;76.90
69204;DHT22;56317;27.658;85.326;2022-09-27T11:31:45;25.10;80.90
69204;DHT22;56317;27.658;85.326;2022-09-27T11:34:17;24.80;81.80
69204;DHT22;56317;27.658;85.326;2022-09-27T11:37:15;24.60;82.30
69204;DHT22;56317;27.658;85.326;2022-09-27T11:45:28;24.30;87.10
69204;DHT22;56317;27.658;85.326;2022-09-27T11:51:05;24.10;88.70
69204;DHT22;56317;27.658;85.326;2022-09-27T11:53:56;24.00;89.50
69204;DHT22;56317;27.658;85.326;2022-09-27T12:10:51;23.40;91.10
69204;DHT22;56317;27.658;85.326;2022-09-27T12:13:44;23.30;91.30
69204;DHT22;56317;27.658;85.326;2022-09-27T12:16:15;23.30;91.60
69204;DHT22;56317;27.658;85.326;2022-09-27T12:18:44;23.30;92.40
69204;DHT22;56317;27.658;85.326;2022-09-27T12:21:13;23.30;92.10
69204;DHT22;56317;27.658;85.326;2022-09-27T12:23:54;23.30;92.20
69204;DHT22;56317;27.658;85.326;2022-09-27T12:26:34;23.30;92.50
69204;DHT22;56317;27.658;85.326;2022-09-27T12:29:25;23.30;92.50
69204;DHT22;56317;27.658;85.326;2022-09-27T12:34:48;23.30;92.00
69204;DHT22;56317;27.658;85.326;2022-09-27T12:37:33;23.30;92.20
69204;DHT22;56317;27.658;85.326;2022-09-27T12:40:28;23.20;92.20
69204;DHT22;56317;27.658;85.326;2022-09-27T12:48:46;23.10;92.80
69204;DHT22;56317;27.658;85.326;2022-09-27T12:51:20;23.10;92.80
69204;DHT22;56317;27.658;85.326;2022-09-27T12:57:01;23.00;93.30
69204;DHT22;56317;27.658;85.326;2022-09-27T13:12:32;23.00;96.90
69204;DHT22;56317;27.658;85.326;2022-09-27T13:17:49;23.10;97.40
69204;DHT22;56317;27.658;85.326;2022-09-27T13:25:52;23.00;98.10
69204;DHT22;56317;27.658;85.326;2022-09-27T13:31:06;23.00;98.40
69204;DHT22;56317;27.658;85.326;2022-09-27T13:36:24;22.90;99.20
69204;DHT22;56317;27.658;85.326;2022-09-27T13:47:26;22.80;99.60
69204;DHT22;56317;27.658;85.326;2022-09-27T13:55:46;22.60;98.70
69204;DHT22;56317;27.658;85.326;2022-09-27T14:01:41;22.50;99.20
69204;DHT22;56317;27.658;85.326;2022-09-27T14:05:03;22.40;99.10
69204;DHT22;56317;27.658;85.326;2022-09-27T14:07:40;22.40;99.30
69204;DHT22;56317;27.658;85.326;2022-09-27T14:10:19;22.30;99.50
69204;DHT22;56317;27.658;85.326;2022-09-27T14:12:51;22.20;99.70
69204;DHT22;56317;27.658;85.326;2022-09-27T14:15:29;22.10;99.90
69204;DHT22;56317;27.658;85.326;2022-09-27T14:17:59;21.90;99.90
69204;DHT22;56317;27.658;85.326;2022-09-27T14:20:43;21.80;99.90
69204;DHT22;56317;27.658;85.326;2022-09-27T14:23:27;21.70;99.90
69204;DHT22;56317;27.658;85.326;2022-09-27T14:25:57;21.60;99.90
69204;DHT22;56317;27.658;85.326;2022-09-27T14:28:27;21.50;99.90
69204;DHT22;56317;27.658;85.326;2022-09-27T14:31:14;21.40;99.90
69204;DHT22;56317;27.658;85.326;2022-09-27T14:33:43;21.40;99.90
69204;DHT22;56317;27.658;85.326;2022-09-27T14:36:26;21.30;99.90
69204;DHT22;56317;27.658;85.326;2022-09-27T14:39:27;21.20;99.90
69204;DHT22;56317;27.658;85.326;2022-09-27T14:42:04;21.10;99.90
69204;DHT22;56317;27.658;85.326;2022-09-27T14:44:33;21.10;99.90
69204;DHT22;56317;27.658;85.326;2022-09-27T14:47:18;21.00;99.90
69204;DHT22;56317;27.658;85.326;2022-09-27T14:50:12;21.00;99.90
69204;DHT22;56317;27.658;85.326;2022-09-27T14:52:43;21.00;99.90
69204;DHT22;56317;27.658;85.326;2022-09-27T14:55:22;21.00;99.90
69204;DHT22;56317;27.658;85.326;2022-09-27T14:57:53;21.00;99.90
69204;DHT22;56317;27.658;85.326;2022-09-27T15:00:26;21.00;99.90
69204;DHT22;56317;27.658;85.326;2022-09-27T15:03:03;21.00;99.90
69204;DHT22;56317;27.658;85.326;2022-09-27T15:05:32;21.00;99.90
69204;DHT22;56317;27.658;85.326;2022-09-27T15:08:04;21.00;99.90
69204;DHT22;56317;27.658;85.326;2022-09-27T15:10:34;21.00;99.90
69204;DHT22;56317;27.658;85.326;2022-09-27T15:13:03;21.00;99.90
69204;DHT22;56317;27.658;85.326;2022-09-27T15:15:34;20.90;99.90
69204;DHT22;56317;27.658;85.326;2022-09-27T15:20:53;20.80;99.90
69204;DHT22;56317;27.658;85.326;2022-09-27T15:23:27;20.80;99.90
69204;DHT22;56317;27.658;85.326;2022-09-27T15:28:49;20.60;99.90
69204;DHT22;56317;27.658;85.326;2022-09-27T15:31:28;20.60;99.90
69204;DHT22;56317;27.658;85.326;2022-09-27T15:33:56;20.60;99.90
69204;DHT22;56317;27.658;85.326;2022-09-27T15:39:17;20.50;99.90
69204;DHT22;56317;27.658;85.326;2022-09-27T15:44:37;20.40;99.90
69204;DHT22;56317;27.658;85.326;2022-09-27T15:47:08;20.40;99.90
69204;DHT22;56317;27.658;85.326;2022-09-27T15:49:52;20.30;99.90
69204;DHT22;56317;27.658;85.326;2022-09-27T15:52:46;20.30;99.90
69204;DHT22;56317;27.658;85.326;2022-09-27T15:55:19;20.30;99.90
69204;DHT22;56317;27.658;85.326;2022-09-27T15:57:52;20.30;99.90
69204;DHT22;56317;27.658;85.326;2022-09-27T16:00:19;20.20;99.90
69204;DHT22;56317;27.658;85.326;2022-09-27T16:02:47;20.10;99.90
69204;DHT22;56317;27.658;85.326;2022-09-27T16:05:14;20.10;99.90
69204;DHT22;56317;27.658;85.326;2022-09-27T16:07:41;20.10;99.90
69204;DHT22;56317;27.658;85.326;2022-09-27T16:10:17;20.00;99.90
69204;DHT22;56317;27.658;85.326;2022-09-27T16:12:44;20.00;99.90
69204;DHT22;56317;27.658;85.326;2022-09-27T16:15:13;20.00;99.90
69204;DHT22;56317;27.658;85.326;2022-09-27T16:17:41;19.90;99.90
69204;DHT22;56317;27.658;85.326;2022-09-27T16:20:21;19.90;99.90
69204;DHT22;56317;27.658;85.326;2022-09-27T16:22:53;19.80;99.90
69204;DHT22;56317;27.658;85.326;2022-09-27T16:25:21;19.80;99.90
69204;DHT22;56317;27.658;85.326;2022-09-27T16:27:49;19.80;99.90
69204;DHT22;56317;27.658;85.326;2022-09-27T16:30:18;19.80;99.90
69204;DHT22;56317;27.658;85.326;2022-09-27T16:32:47;19.80;99.90
69204;DHT22;56317;27.658;85.326;2022-09-27T16:35:16;19.80;99.90
69204;DHT22;56317;27.658;85.326;2022-09-27T16:37:44;19.80;99.90
69204;DHT22;56317;27.658;85.326;2022-09-27T16:40:12;19.70;99.90
69204;DHT22;56317;27.658;85.326;2022-09-27T16:42:40;19.70;99.90
69204;DHT22;56317;27.658;85.326;2022-09-27T16:45:10;19.70;99.90
69204;DHT22;56317;27.658;85.326;2022-09-27T16:47:37;19.70;99.90
69204;DHT22;56317;27.658;85.326;2022-09-27T16:50:06;19.70;99.90
69204;DHT22;56317;27.658;85.326;2022-09-27T16:52:52;19.70;99.90
69204;DHT22;56317;27.658;85.326;2022-09-27T16:55:20;19.60;99.90
69204;DHT22;56317;27.658;85.326;2022-09-27T16:57:49;19.60;99.90
69204;DHT22;56317;27.658;85.326;2022-09-27T17:00:17;19.60;99.90
69204;DHT22;56317;27.658;85.326;2022-09-27T17:02:47;19.60;99.90
69204;DHT22;56317;27.658;85.326;2022-09-27T17:05:15;19.60;99.90
69204;DHT22;56317;27.658;85.326;2022-09-27T17:07:48;19.60;99.90
69204;DHT22;56317;27.658;85.326;2022-09-27T17:10:17;19.50;99.90
69204;DHT22;56317;27.658;85.326;2022-09-27T17:12:45;19.50;99.90
69204;DHT22;56317;27.658;85.326;2022-09-27T17:15:13;19.40;99.90
69204;DHT22;56317;27.658;85.326;2022-09-27T17:17:40;19.40;99.90
69204;DHT22;56317;27.658;85.326;2022-09-27T17:20:08;19.40;99.90
69204;DHT22;56317;27.658;85.326;2022-09-27T17:22:35;19.40;99.90
69204;DHT22;56317;27.658;85.326;2022-09-27T17:25:02;19.30;99.90
69204;DHT22;56317;27.658;85.326;2022-09-27T17:27:29;19.30;99.90
69204;DHT22;56317;27.658;85.326;2022-09-27T17:29:57;19.30;99.90
69204;DHT22;56317;27.658;85.326;2022-09-27T17:32:24;19.30;99.90
69204;DHT22;56317;27.658;85.326;2022-09-27T17:34:52;19.30;99.90
69204;DHT22;56317;27.658;85.326;2022-09-27T17:37:19;19.30;99.90
69204;DHT22;56317;27.658;85.326;2022-09-27T17:39:47;19.30;99.90
69204;DHT22;56317;27.658;85.326;2022-09-27T17:42:14;19.20;99.90
69204;DHT22;56317;27.658;85.326;2022-09-27T17:44:41;19.20;99.90
69204;DHT22;56317;27.658;85.326;2022-09-27T17:47:08;19.20;99.90
69204;DHT22;56317;27.658;85.326;2022-09-27T17:49:53;19.20;99.90
69204;DHT22;56317;27.658;85.326;2022-09-27T17:52:38;19.10;99.90
69204;DHT22;56317;27.658;85.326;2022-09-27T17:55:06;19.10;99.90
69204;DHT22;56317;27.658;85.326;2022-09-27T17:57:33;19.00;99.90
69204;DHT22;56317;27.658;85.326;2022-09-27T18:00:01;19.00;99.90
69204;DHT22;56317;27.658;85.326;2022-09-27T18:02:28;19.00;99.90
69204;DHT22;56317;27.658;85.326;2022-09-27T18:04:55;18.90;99.90
69204;DHT22;56317;27.658;85.326;2022-09-27T18:07:22;18.90;99.90
69204;DHT22;56317;27.658;85.326;2022-09-27T18:09:50;18.90;99.90
69204;DHT22;56317;27.658;85.326;2022-09-27T18:12:17;18.90;99.90
69204;DHT22;56317;27.658;85.326;2022-09-27T18:14:44;18.80;99.90
69204;DHT22;56317;27.658;85.326;2022-09-27T18:17:12;18.80;99.90
69204;DHT22;56317;27.658;85.326;2022-09-27T18:19:39;18.70;99.90
69204;DHT22;56317;27.658;85.326;2022-09-27T18:22:06;18.70;99.90
69204;DHT22;56317;27.658;85.326;2022-09-27T18:24:33;18.70;99.90
69204;DHT22;56317;27.658;85.326;2022-09-27T18:27:01;18.70;99.90
69204;DHT22;56317;27.658;85.326;2022-09-27T18:29:29;18.60;99.90
69204;DHT22;56317;27.658;85.326;2022-09-27T18:31:56;18.60;99.90
69204;DHT22;56317;27.658;85.326;2022-09-27T18:34:24;18.60;99.90
69204;DHT22;56317;27.658;85.326;2022-09-27T18:36:51;18.50;99.90
69204;DHT22;56317;27.658;85.326;2022-09-27T18:39:18;18.50;99.90
69204;DHT22;56317;27.658;85.326;2022-09-27T18:41:46;18.50;99.90
69204;DHT22;56317;27.658;85.326;2022-09-27T18:44:17;18.50;99.90
69204;DHT22;56317;27.658;85.326;2022-09-27T18:46:44;18.40;99.90
69204;DHT22;56317;27.658;85.326;2022-09-27T18:49:13;18.50;99.90
69204;DHT22;56317;27.658;85.326;2022-09-27T18:51:42;18.50;99.90
69204;DHT22;56317;27.658;85.326;2022-09-27T18:54:17;18.60;99.90
69204;DHT22;56317;27.658;85.326;2022-09-27T18:56:45;18.60;99.90
69204;DHT22;56317;27.658;85.326;2022-09-27T18:59:13;18.60;99.90
69204;DHT22;56317;27.658;85.326;2022-09-27T19:01:42;18.60;99.90